createdAt,value
2018-01-29T00:00:03.347Z,10.78
2018-01-29T00:02:30.902Z,10.64
2018-01-29T00:04:58.458Z,10.75
2018-01-29T00:07:25.961Z,10.72
2018-01-29T00:09:53.609Z,10.66
2018-01-29T00:12:21.113Z,10.55
2018-01-29T00:14:48.621Z,10.39
2018-01-29T00:17:16.157Z,10.41
2018-01-29T00:19:43.667Z,10.45
2018-01-29T00:22:11.476Z,10.47
2018-01-29T00:24:38.980Z,10.29
2018-01-29T00:27:06.480Z,10.30
2018-01-29T00:29:34.009Z,10.34
2018-01-29T00:32:01.517Z,10.31
2018-01-29T00:34:29.374Z,10.33
2018-01-29T00:36:56.934Z,10.39
2018-01-29T00:39:24.436Z,10.31
2018-01-29T00:41:51.965Z,10.22
2018-01-29T00:44:19.510Z,10.32
2018-01-29T00:46:47.056Z,10.38
2018-01-29T00:49:14.556Z,10.31
2018-01-29T00:51:42.083Z,10.29
2018-01-29T00:54:09.643Z,10.05
2018-01-29T00:56:37.150Z,10.03
2018-01-29T00:59:04.967Z,9.91
2018-01-29T01:01:32.465Z,9.74
2018-01-29T01:03:59.983Z,9.61
2018-01-29T01:06:27.540Z,9.48
2018-01-29T01:08:55.116Z,9.40
2018-01-29T01:11:22.837Z,9.19
2018-01-29T01:13:50.338Z,9.21
2018-01-29T01:16:17.879Z,9.14
2018-01-29T01:18:45.406Z,9.04
2018-01-29T01:21:12.912Z,8.91
2018-01-29T01:23:40.761Z,8.94
2018-01-29T01:26:08.270Z,8.93
2018-01-29T01:28:35.765Z,8.88
2018-01-29T01:31:03.347Z,8.77
2018-01-29T01:33:30.900Z,8.81
2018-01-29T01:35:58.832Z,8.78
2018-01-29T01:38:26.336Z,8.80
2018-01-29T01:40:53.840Z,8.72
2018-01-29T01:43:21.372Z,8.72
2018-01-29T01:45:48.876Z,8.67
2018-01-29T01:48:16.662Z,8.72
2018-01-29T01:50:44.161Z,8.71
2018-01-29T01:53:11.664Z,8.78
2018-01-29T01:55:39.237Z,8.86
2018-01-29T01:58:06.732Z,8.79
2018-01-29T02:00:34.265Z,8.80
2018-01-29T02:03:01.766Z,8.72
2018-01-29T02:05:29.267Z,8.79
2018-01-29T02:07:56.804Z,8.95
2018-01-29T02:10:24.312Z,8.88
2018-01-29T02:12:51.948Z,9.03
2018-01-29T02:15:19.441Z,8.95
2018-01-29T02:17:46.939Z,8.86
2018-01-29T02:20:14.465Z,8.85
2018-01-29T02:22:41.969Z,8.94
2018-01-29T02:25:09.842Z,8.98
2018-01-29T02:27:37.342Z,8.73
2018-01-29T02:30:04.859Z,8.97
2018-01-29T02:32:32.418Z,8.87
2018-01-29T02:34:59.913Z,8.80
2018-01-29T02:37:27.684Z,8.79
2018-01-29T02:39:55.194Z,8.94
2018-01-29T02:42:22.685Z,9.11
2018-01-29T02:44:50.218Z,9.07
2018-01-29T02:47:17.724Z,9.13
2018-01-29T02:49:45.537Z,8.76
2018-01-29T02:52:13.033Z,8.93
2018-01-29T02:54:40.554Z,8.68
2018-01-29T02:57:08.113Z,9.04
2018-01-29T02:59:35.629Z,9.09
2018-01-29T03:02:03.337Z,9.02
2018-01-29T03:04:30.913Z,8.97
2018-01-29T03:06:58.453Z,8.88
2018-01-29T03:09:25.974Z,9.02
2018-01-29T03:11:53.478Z,8.98
2018-01-29T03:14:21.230Z,8.96
2018-01-29T03:16:48.728Z,9.19
2018-01-29T03:19:16.228Z,9.03
2018-01-29T03:21:43.749Z,8.92
2018-01-29T03:24:11.257Z,8.99
2018-01-29T03:26:39.334Z,9.03
2018-01-29T03:29:06.897Z,9.01
2018-01-29T03:31:34.394Z,8.67
2018-01-29T03:34:01.940Z,8.78
2018-01-29T03:36:29.445Z,8.93
2018-01-29T03:38:57.312Z,8.96
2018-01-29T03:41:24.814Z,9.06
2018-01-29T03:43:52.367Z,8.89
2018-01-29T03:46:19.899Z,9.09
2018-01-29T03:48:47.393Z,9.00
2018-01-29T03:51:15.130Z,9.15
2018-01-29T03:53:42.637Z,9.21
2018-01-29T03:56:10.160Z,9.12
2018-01-29T03:58:37.685Z,9.16
2018-01-29T04:01:05.205Z,9.28
2018-01-29T04:03:32.750Z,9.32
2018-01-29T04:06:00.249Z,9.20
2018-01-29T04:08:27.749Z,8.89
2018-01-29T04:10:55.282Z,8.93
2018-01-29T04:13:22.786Z,9.10
2018-01-29T04:15:50.589Z,9.20
2018-01-29T04:18:18.112Z,9.22
2018-01-29T04:20:45.634Z,9.33
2018-01-29T04:23:13.181Z,9.35
2018-01-29T04:25:40.680Z,9.23
2018-01-29T04:28:08.309Z,9.21
2018-01-29T04:30:35.804Z,8.97
2018-01-29T04:33:03.312Z,8.87
2018-01-29T04:35:30.840Z,8.95
2018-01-29T04:37:58.345Z,9.10
2018-01-29T04:40:26.234Z,9.20
2018-01-29T04:42:53.792Z,9.04
2018-01-29T04:45:21.292Z,9.17
2018-01-29T04:47:48.869Z,9.28
2018-01-29T04:50:16.342Z,9.12
2018-01-29T04:52:44.005Z,9.16
2018-01-29T04:55:11.505Z,9.04
2018-01-29T04:57:39.002Z,8.97
2018-01-29T05:00:06.529Z,9.05
2018-01-29T05:02:34.025Z,9.11
2018-01-29T05:05:01.701Z,9.07
2018-01-29T05:07:29.197Z,9.17
2018-01-29T05:09:56.691Z,9.04
2018-01-29T05:12:24.212Z,8.95
2018-01-29T05:14:51.730Z,8.72
2018-01-29T05:17:19.291Z,9.00
2018-01-29T05:19:46.789Z,9.03
2018-01-29T05:22:14.305Z,9.13
2018-01-29T05:24:41.897Z,8.96
2018-01-29T05:27:09.429Z,9.23
2018-01-29T05:29:36.993Z,9.40
2018-01-29T05:32:04.543Z,9.52
2018-01-29T05:34:32.049Z,9.63
2018-01-29T05:37:02.095Z,9.72
2018-01-29T05:39:29.985Z,9.83
2018-01-29T05:41:57.589Z,9.85
2018-01-29T05:44:28.667Z,9.91
2018-01-29T05:46:56.383Z,9.93
2018-01-29T05:49:23.921Z,9.90
2018-01-29T05:51:51.547Z,9.94
2018-01-29T05:54:19.127Z,10.00
2018-01-29T05:56:46.688Z,10.01
2018-01-29T05:59:14.189Z,9.98
2018-01-29T06:01:41.721Z,10.10
2018-01-29T06:04:09.245Z,10.15
2018-01-29T06:06:37.129Z,10.16
2018-01-29T06:09:04.637Z,10.17
2018-01-29T06:11:32.168Z,10.19
2018-01-29T06:13:59.701Z,10.22
2018-01-29T06:16:27.215Z,10.15
2018-01-29T06:18:54.749Z,10.20
2018-01-29T06:21:22.271Z,9.99
2018-01-29T06:23:49.839Z,9.76
2018-01-29T06:26:17.412Z,10.11
2018-01-29T06:28:44.925Z,10.28
2018-01-29T06:31:12.800Z,10.26
2018-01-29T06:33:40.305Z,9.92
2018-01-29T06:36:07.839Z,9.81
2018-01-29T06:38:35.400Z,9.65
2018-01-29T06:41:02.901Z,9.69
2018-01-29T06:43:30.618Z,9.82
2018-01-29T06:45:58.231Z,10.01
2018-01-29T06:48:25.773Z,9.69
2018-01-29T06:50:53.360Z,10.15
2018-01-29T06:53:20.881Z,10.02
2018-01-29T06:55:48.406Z,10.00
2018-01-29T06:58:16.872Z,9.95
2018-01-29T07:00:44.381Z,10.13
2018-01-29T07:03:11.914Z,9.99
2018-01-29T07:05:39.418Z,10.16
2018-01-29T07:08:07.149Z,10.33
2018-01-29T07:10:34.690Z,10.24
2018-01-29T07:13:02.218Z,9.76
2018-01-29T07:15:29.753Z,10.09
2018-01-29T07:17:57.257Z,10.29
2018-01-29T07:20:25.029Z,10.10
2018-01-29T07:22:52.528Z,9.90
2018-01-29T07:25:20.045Z,10.51
2018-01-29T07:27:47.612Z,10.09
2018-01-29T07:30:15.189Z,10.28
2018-01-29T07:32:42.752Z,10.13
2018-01-29T07:35:10.257Z,10.35
2018-01-29T07:37:37.760Z,10.38
2018-01-29T07:40:05.297Z,10.64
2018-01-29T07:42:32.873Z,10.50
2018-01-29T07:45:00.483Z,10.69
2018-01-29T07:47:28.002Z,10.70
2018-01-29T07:49:55.517Z,10.62
2018-01-29T07:52:23.071Z,11.07
2018-01-29T07:54:50.590Z,10.79
2018-01-29T07:57:18.583Z,10.33
2018-01-29T07:59:46.093Z,10.62
2018-01-29T08:02:13.637Z,10.86
2018-01-29T08:04:41.196Z,11.01
2018-01-29T08:07:08.707Z,10.88
2018-01-29T08:09:36.745Z,11.15
2018-01-29T08:12:04.284Z,10.99
2018-01-29T08:14:32.047Z,10.91
2018-01-29T08:16:59.594Z,10.85
2018-01-29T08:19:27.103Z,10.99
2018-01-29T08:21:54.829Z,11.10
2018-01-29T08:24:22.388Z,11.30
2018-01-29T08:26:49.906Z,11.20
2018-01-29T08:29:17.454Z,11.33
2018-01-29T08:31:46.005Z,11.58
2018-01-29T08:34:13.751Z,11.68
2018-01-29T08:36:41.261Z,11.77
2018-01-29T08:39:08.769Z,12.11
2018-01-29T08:41:36.339Z,11.89
2018-01-29T08:44:03.857Z,11.92
2018-01-29T08:46:31.649Z,12.18
2018-01-29T08:48:59.178Z,12.06
2018-01-29T08:51:26.702Z,11.80
2018-01-29T08:53:54.267Z,11.74
2018-01-29T08:56:21.786Z,11.96
2018-01-29T08:58:49.525Z,11.64
2018-01-29T09:01:17.059Z,11.77
2018-01-29T09:03:44.579Z,11.98
2018-01-29T09:06:12.123Z,11.90
2018-01-29T09:08:39.689Z,11.34
2018-01-29T09:11:07.522Z,11.84
2018-01-29T09:13:35.039Z,12.11
2018-01-29T09:16:02.573Z,12.11
2018-01-29T09:18:30.224Z,12.72
2018-01-29T09:20:57.742Z,12.79
2018-01-29T09:23:25.437Z,13.02
2018-01-29T09:25:52.959Z,13.18
2018-01-29T09:28:20.486Z,13.18
2018-01-29T09:30:48.039Z,13.74
2018-01-29T09:33:15.563Z,13.92
2018-01-29T09:35:43.360Z,13.82
2018-01-29T09:38:10.801Z,13.63
2018-01-29T09:40:38.368Z,13.37
2018-01-29T09:43:05.946Z,15.59
2018-01-29T09:45:33.457Z,17.47
2018-01-29T09:48:00.999Z,16.96
2018-01-29T09:50:28.510Z,15.82
2018-01-29T09:52:56.029Z,14.96
2018-01-29T09:55:23.563Z,14.03
2018-01-29T09:57:51.071Z,13.72
2018-01-29T10:00:18.833Z,13.47
2018-01-29T10:02:46.392Z,13.57
2018-01-29T10:05:13.897Z,13.83
2018-01-29T10:07:41.451Z,13.78
2018-01-29T10:10:08.979Z,14.08
2018-01-29T10:12:36.529Z,14.16
2018-01-29T10:15:04.038Z,14.32
2018-01-29T10:17:31.548Z,14.22
2018-01-29T10:19:59.069Z,14.31
2018-01-29T10:22:26.581Z,14.15
2018-01-29T10:24:54.322Z,14.03
2018-01-29T10:27:21.821Z,14.64
2018-01-29T10:29:49.325Z,15.18
2018-01-29T10:32:19.645Z,14.83
2018-01-29T10:34:50.660Z,14.82
2018-01-29T10:37:21.225Z,14.95
2018-01-29T10:39:48.778Z,15.04
2018-01-29T10:42:16.308Z,14.89
2018-01-29T10:44:43.820Z,14.14
2018-01-29T10:47:11.368Z,14.07
2018-01-29T10:49:38.865Z,14.22
2018-01-29T10:52:06.381Z,14.31
2018-01-29T10:54:33.941Z,14.75
2018-01-29T10:57:01.439Z,15.00
2018-01-29T10:59:28.974Z,14.98
2018-01-29T11:02:02.367Z,14.93
2018-01-29T11:04:29.911Z,14.93
2018-01-29T11:06:57.427Z,15.08
2018-01-29T11:09:24.956Z,14.92
2018-01-29T11:11:52.511Z,14.97
2018-01-29T11:14:20.200Z,15.34
2018-01-29T11:16:47.709Z,15.39
2018-01-29T11:19:15.212Z,15.84
2018-01-29T11:21:42.927Z,16.20
2018-01-29T11:24:10.897Z,16.29
2018-01-29T11:26:38.456Z,16.35
2018-01-29T11:29:06.016Z,16.27
2018-01-29T11:31:33.519Z,16.05
2018-01-29T11:34:01.051Z,16.58
2018-01-29T11:36:28.640Z,16.66
2018-01-29T11:38:56.660Z,16.64
2018-01-29T11:41:24.632Z,16.64
2018-01-29T11:43:52.133Z,16.50
2018-01-29T11:46:19.665Z,16.51
2018-01-29T11:48:47.188Z,16.68
2018-01-29T11:51:14.969Z,16.97
2018-01-29T11:53:42.529Z,17.11
2018-01-29T11:56:10.034Z,17.40
2018-01-29T11:58:37.562Z,17.15
2018-01-29T12:01:05.104Z,17.01
2018-01-29T12:03:32.678Z,17.03
2018-01-29T12:06:00.180Z,17.19
2018-01-29T12:08:27.679Z,16.92
2018-01-29T12:10:55.206Z,16.91
2018-01-29T12:13:22.724Z,17.08
2018-01-29T12:15:50.256Z,17.15
2018-01-29T12:18:17.757Z,16.91
2018-01-29T12:20:45.256Z,16.72
2018-01-29T12:23:12.784Z,16.47
2018-01-29T12:25:40.297Z,16.87
2018-01-29T12:28:08.249Z,17.61
2018-01-29T12:30:35.762Z,17.79
2018-01-29T12:33:03.266Z,17.07
2018-01-29T12:35:30.831Z,17.17
2018-01-29T12:37:58.337Z,16.90
2018-01-29T12:40:26.157Z,17.07
2018-01-29T12:42:59.836Z,17.12
2018-01-29T12:45:29.242Z,17.17
2018-01-29T12:48:10.404Z,16.17
2018-01-29T12:50:40.841Z,15.94
2018-01-29T12:53:11.825Z,15.16
2018-01-29T12:55:45.608Z,15.03
2018-01-29T12:58:15.171Z,14.53
2018-01-29T13:00:43.193Z,14.65
2018-01-29T13:03:17.050Z,14.83
2018-01-29T13:05:48.297Z,14.62
2018-01-29T13:08:36.990Z,14.89
2018-01-29T13:11:15.292Z,14.56
2018-01-29T13:13:48.694Z,14.07
2018-01-29T13:16:18.729Z,14.59
2018-01-29T13:18:50.962Z,14.71
2018-01-29T13:21:22.780Z,14.71
2018-01-29T13:23:51.648Z,14.63
2018-01-29T13:26:23.428Z,14.45
2018-01-29T13:28:55.273Z,14.21
2018-01-29T13:31:28.638Z,14.21
2018-01-29T13:33:57.536Z,14.15
2018-01-29T13:36:30.545Z,14.22
2018-01-29T13:38:58.900Z,14.17
2018-01-29T13:41:26.409Z,14.29
2018-01-29T13:43:54.452Z,14.35
2018-01-29T13:46:24.133Z,14.37
2018-01-29T13:48:51.628Z,14.17
2018-01-29T13:51:19.562Z,14.19
2018-01-29T13:53:50.528Z,14.44
2018-01-29T13:56:29.920Z,14.42
2018-01-29T13:58:59.260Z,14.26
2018-01-29T14:01:46.464Z,14.01
2018-01-29T14:04:18.777Z,14.31
2018-01-29T14:06:48.448Z,14.06
2018-01-29T14:09:15.996Z,14.50
2018-01-29T14:11:49.369Z,15.07
2018-01-29T14:14:16.864Z,14.76
2018-01-29T14:16:45.904Z,14.70
2018-01-29T14:19:14.370Z,14.55
2018-01-29T14:21:41.933Z,14.49
2018-01-29T14:24:18.246Z,14.36
2018-01-29T14:26:45.752Z,14.17
2018-01-29T14:29:14.269Z,13.96
2018-01-29T14:31:47.173Z,14.23
2018-01-29T14:34:19.753Z,14.40
2018-01-29T14:36:51.713Z,14.47
2018-01-29T14:39:23.136Z,14.22
2018-01-29T14:41:56.838Z,14.36
2018-01-29T14:44:40.872Z,14.09
2018-01-29T14:47:10.469Z,13.99
2018-01-29T14:49:40.235Z,13.55
2018-01-29T14:52:30.522Z,13.51
2018-01-29T14:54:58.081Z,13.43
2018-01-29T14:57:25.877Z,13.06
2018-01-29T14:59:53.388Z,12.92
2018-01-29T15:02:21.852Z,12.93
2018-01-29T15:04:49.389Z,12.69
2018-01-29T15:07:17.720Z,12.80
2018-01-29T15:09:45.456Z,12.70
2018-01-29T15:12:12.972Z,12.74
2018-01-29T15:14:41.406Z,12.45
2018-01-29T15:17:12.220Z,12.40
2018-01-29T15:19:40.314Z,12.58
2018-01-29T15:22:14.830Z,12.76
2018-01-29T15:24:43.385Z,12.69
2018-01-29T15:27:10.901Z,12.97
2018-01-29T15:29:38.448Z,13.06
2018-01-29T15:32:08.998Z,13.00
2018-01-29T15:34:36.639Z,13.05
2018-01-29T15:37:14.813Z,12.97
2018-01-29T15:39:45.585Z,12.83
2018-01-29T15:42:19.458Z,12.69
2018-01-29T15:44:47.152Z,12.85
2018-01-29T15:47:14.711Z,12.77
2018-01-29T15:49:42.226Z,12.36
2018-01-29T15:52:09.751Z,11.96
2018-01-29T15:54:37.294Z,12.06
2018-01-29T15:57:04.899Z,12.17
2018-01-29T15:59:32.814Z,12.09
2018-01-29T16:02:00.686Z,12.11
2018-01-29T16:04:28.186Z,12.26
2018-01-29T16:06:56.522Z,12.23
2018-01-29T16:09:24.068Z,12.50
2018-01-29T16:11:51.640Z,12.44
2018-01-29T16:14:19.484Z,12.51
2018-01-29T16:16:46.993Z,12.70
2018-01-29T16:19:15.346Z,12.52
2018-01-29T16:21:42.894Z,12.02
2018-01-29T16:24:10.451Z,12.14
2018-01-29T16:26:38.018Z,12.34
2018-01-29T16:29:05.572Z,11.98
2018-01-29T16:31:33.546Z,11.90
2018-01-29T16:34:01.100Z,12.21
2018-01-29T16:36:28.658Z,11.96
2018-01-29T16:38:56.161Z,12.01
2018-01-29T16:41:23.896Z,12.09
2018-01-29T16:43:52.301Z,12.13
2018-01-29T16:46:19.919Z,12.07
2018-01-29T16:48:47.661Z,12.16
2018-01-29T16:51:15.245Z,12.05
2018-01-29T16:53:43.094Z,12.23
2018-01-29T16:56:14.671Z,12.13
2018-01-29T16:58:42.327Z,12.24
2018-01-29T17:01:11.242Z,12.37
2018-01-29T17:03:52.332Z,12.35
2018-01-29T17:06:19.851Z,12.53
2018-01-29T17:08:47.371Z,12.59
2018-01-29T17:11:14.920Z,12.53
2018-01-29T17:13:47.814Z,12.61
2018-01-29T17:16:18.892Z,12.32
2018-01-29T17:18:48.215Z,12.04
2018-01-29T17:21:22.204Z,12.20
2018-01-29T17:23:50.717Z,12.02
2018-01-29T17:26:18.242Z,11.99
2018-01-29T17:28:55.685Z,12.23
2018-01-29T17:31:26.029Z,12.48
2018-01-29T17:33:53.584Z,12.19
2018-01-29T17:36:21.097Z,12.40
2018-01-29T17:38:48.917Z,12.46
2018-01-29T17:41:17.592Z,12.14
2018-01-29T17:43:45.104Z,12.01
2018-01-29T17:46:12.847Z,11.98
2018-01-29T17:48:40.407Z,12.20
2018-01-29T17:51:07.970Z,12.37
2018-01-29T17:53:35.525Z,12.45
2018-01-29T17:56:03.084Z,12.39
2018-01-29T17:58:30.596Z,12.07
2018-01-29T18:00:58.169Z,12.30
2018-01-29T18:03:25.675Z,12.17
2018-01-29T18:05:53.324Z,12.30
2018-01-29T18:08:20.985Z,12.46
2018-01-29T18:10:48.722Z,12.42
2018-01-29T18:13:16.398Z,12.22
2018-01-29T18:15:44.070Z,12.17
2018-01-29T18:18:12.812Z,12.38
2018-01-29T18:20:40.459Z,12.48
2018-01-29T18:23:08.282Z,12.50
2018-01-29T18:25:35.953Z,12.13
2018-01-29T18:28:03.811Z,12.31
2018-01-29T18:30:31.506Z,12.29
2018-01-29T18:32:59.134Z,12.28
2018-01-29T18:35:27.021Z,12.49
2018-01-29T18:37:54.762Z,12.36
2018-01-29T18:40:22.576Z,12.12
2018-01-29T18:42:50.292Z,11.81
2018-01-29T18:45:19.387Z,12.13
2018-01-29T18:48:03.434Z,12.14
2018-01-29T18:50:31.094Z,11.83
2018-01-29T18:53:03.057Z,12.31
2018-01-29T18:55:35.871Z,12.29
2018-01-29T18:58:03.602Z,12.55
2018-01-29T19:00:31.469Z,12.48
2018-01-29T19:02:59.246Z,12.58
2018-01-29T19:05:29.365Z,12.50
2018-01-29T19:08:01.881Z,12.17
2018-01-29T19:10:35.956Z,12.50
2018-01-29T19:13:03.685Z,12.39
2018-01-29T19:15:46.406Z,12.34
2018-01-29T19:18:13.992Z,12.06
2018-01-29T19:20:47.892Z,12.14
2018-01-29T19:23:19.667Z,12.14
2018-01-29T19:25:47.421Z,11.85
2018-01-29T19:28:15.192Z,12.15
2018-01-29T19:30:45.092Z,12.21
2018-01-29T19:33:18.583Z,11.97
2018-01-29T19:36:09.861Z,11.97
2018-01-29T19:38:38.176Z,12.11
2018-01-29T19:41:07.275Z,12.29
2018-01-29T19:43:36.674Z,12.15
2018-01-29T19:46:08.637Z,12.20
2018-01-29T19:48:37.731Z,12.51
2018-01-29T19:51:06.111Z,12.26
2018-01-29T19:53:34.794Z,12.04
2018-01-29T19:56:19.249Z,11.74
2018-01-29T19:58:52.362Z,11.97
2018-01-29T20:01:21.339Z,11.64
2018-01-29T20:04:04.150Z,12.04
2018-01-29T20:06:40.021Z,11.97
2018-01-29T20:09:08.327Z,11.64
2018-01-29T20:11:36.758Z,11.90
2018-01-29T20:14:06.306Z,12.00
2018-01-29T20:16:37.622Z,11.95
2018-01-29T20:19:06.225Z,11.95
2018-01-29T20:21:43.558Z,12.03
2018-01-29T20:24:15.035Z,11.82
2018-01-29T20:26:44.767Z,11.97
2018-01-29T20:29:30.243Z,11.88
2018-01-29T20:32:05.062Z,11.76
2018-01-29T20:37:27.411Z,12.15
2018-01-29T20:39:55.279Z,11.92
2018-01-29T20:42:27.341Z,11.60
2018-01-29T20:45:06.164Z,11.88
2018-01-29T20:47:42.140Z,11.79
2018-01-29T20:50:11.230Z,11.48
2018-01-29T20:52:40.619Z,11.78
2018-01-29T20:55:19.144Z,11.53
2018-01-29T20:57:47.826Z,11.70
2018-01-29T21:00:18.658Z,11.89
2018-01-29T21:02:53.387Z,11.63
2018-01-29T21:05:24.950Z,11.73
2018-01-29T21:07:52.803Z,11.42
2018-01-29T21:10:23.639Z,11.46
2018-01-29T21:12:51.545Z,11.31
2018-01-29T21:15:20.944Z,11.46
2018-01-29T21:18:02.197Z,11.68
2018-01-29T21:20:37.326Z,11.93
2018-01-29T21:23:07.960Z,11.86
2018-01-29T21:25:40.460Z,11.31
2018-01-29T21:28:14.633Z,11.85
2018-01-29T21:30:51.053Z,11.80
2018-01-29T21:33:18.984Z,11.64
2018-01-29T21:35:55.142Z,11.62
2018-01-29T21:38:25.788Z,11.75
2018-01-29T21:40:53.536Z,11.67
2018-01-29T21:43:23.175Z,11.70
2018-01-29T21:45:50.741Z,11.93
2018-01-29T21:48:18.263Z,11.78
2018-01-29T21:50:59.344Z,11.88
2018-01-29T21:53:29.900Z,11.70
2018-01-29T21:55:57.728Z,11.53
2018-01-29T21:58:26.320Z,12.03
2018-01-29T22:01:11.158Z,11.89
2018-01-29T22:03:38.843Z,12.07
2018-01-29T22:06:17.318Z,11.91
2018-01-29T22:08:45.009Z,11.82
2018-01-29T22:11:14.762Z,11.68
2018-01-29T22:13:42.391Z,11.65
2018-01-29T22:16:11.599Z,11.47
2018-01-29T22:18:42.850Z,11.10
2018-01-29T22:21:12.912Z,11.47
2018-01-29T22:23:40.437Z,11.04
2018-01-29T22:26:07.984Z,11.16
2018-01-29T22:28:37.164Z,11.32
2018-01-29T22:31:04.933Z,11.44
2018-01-29T22:33:35.399Z,11.10
2018-01-29T22:36:03.477Z,10.44
2018-01-29T22:38:35.644Z,10.81
2018-01-29T22:41:07.939Z,10.97
2018-01-29T22:43:35.468Z,11.15
2018-01-29T22:46:03.122Z,11.07
2018-01-29T22:48:30.660Z,10.95
2018-01-29T22:50:58.209Z,10.99
2018-01-29T22:53:25.765Z,10.84
2018-01-29T22:55:53.273Z,10.97
2018-01-29T22:58:20.987Z,10.74
2018-01-29T23:00:48.548Z,10.85
2018-01-29T23:03:16.049Z,10.71
2018-01-29T23:05:43.576Z,11.12
2018-01-29T23:08:11.119Z,11.26
2018-01-29T23:10:38.710Z,10.81
2018-01-29T23:13:07.033Z,10.84
2018-01-29T23:15:34.568Z,10.61
2018-01-29T23:18:02.073Z,10.82
2018-01-29T23:20:29.631Z,10.77
2018-01-29T23:22:57.129Z,10.77
2018-01-29T23:25:24.694Z,10.77
2018-01-29T23:27:52.204Z,10.79
2018-01-29T23:30:19.728Z,10.97
2018-01-29T23:32:47.243Z,10.68
2018-01-29T23:35:14.986Z,10.77
2018-01-29T23:37:42.499Z,11.23
2018-01-29T23:40:10.440Z,11.43
2018-01-29T23:42:37.971Z,11.21
2018-01-29T23:45:20.912Z,11.07
2018-01-29T23:47:48.449Z,10.89
2018-01-29T23:50:21.436Z,10.84
2018-01-29T23:52:51.042Z,11.16
2018-01-29T23:55:19.504Z,10.59
2018-01-29T23:57:47.148Z,11.09
